createdAt,value
2018-05-11T00:00:12.700Z,14.20
2018-05-11T00:02:40.121Z,14.20
2018-05-11T00:05:07.533Z,14.10
2018-05-11T00:07:34.962Z,14.00
2018-05-11T00:10:02.416Z,14.00
2018-05-11T00:12:29.881Z,14.00
2018-05-11T00:14:58.064Z,13.90
2018-05-11T00:17:26.381Z,13.90
2018-05-11T00:19:54.540Z,13.80
2018-05-11T00:22:22.731Z,13.80
2018-05-11T00:24:50.954Z,13.70
2018-05-11T00:27:18.376Z,13.70
2018-05-11T00:29:45.791Z,13.70
2018-05-11T00:32:13.209Z,13.70
2018-05-11T00:34:40.724Z,13.60
2018-05-11T00:37:08.153Z,13.60
2018-05-11T00:39:35.572Z,13.60
2018-05-11T00:42:02.999Z,13.50
2018-05-11T00:44:30.507Z,13.50
2018-05-11T00:46:57.934Z,13.40
2018-05-11T00:49:25.511Z,13.40
2018-05-11T00:51:53.636Z,13.30
2018-05-11T00:54:21.053Z,13.30
2018-05-11T00:56:48.475Z,13.20
2018-05-11T00:59:15.888Z,13.20
2018-05-11T01:01:43.311Z,13.10
2018-05-11T01:04:10.728Z,13.10
2018-05-11T01:06:38.146Z,13.00
2018-05-11T01:09:05.615Z,13.00
2018-05-11T01:11:33.029Z,12.90
2018-05-11T01:14:00.554Z,12.80
2018-05-11T01:16:27.968Z,12.80
2018-05-11T01:18:55.406Z,12.80
2018-05-11T01:21:22.865Z,12.70
2018-05-11T01:23:50.292Z,12.70
2018-05-11T01:26:17.720Z,12.70
2018-05-11T01:28:45.137Z,12.60
2018-05-11T01:31:12.561Z,12.60
2018-05-11T01:33:40.017Z,12.60
2018-05-11T01:36:07.433Z,12.50
2018-05-11T01:38:34.953Z,12.40
2018-05-11T01:41:02.429Z,12.40
2018-05-11T01:43:29.848Z,12.40
2018-05-11T01:45:57.373Z,12.30
2018-05-11T01:48:24.784Z,12.30
2018-05-11T01:50:52.204Z,12.20
2018-05-11T01:53:19.625Z,12.20
2018-05-11T01:55:47.046Z,12.20
2018-05-11T01:58:14.516Z,12.10
2018-05-11T02:00:42.676Z,12.00
2018-05-11T02:03:10.881Z,12.00
2018-05-11T02:05:38.301Z,12.00
2018-05-11T02:08:05.829Z,12.00
2018-05-11T02:10:33.294Z,11.90
2018-05-11T02:13:00.774Z,11.90
2018-05-11T02:15:28.204Z,11.80
2018-05-11T02:17:55.646Z,11.80
2018-05-11T02:20:23.060Z,11.80
2018-05-11T02:22:51.241Z,11.70
2018-05-11T02:25:19.452Z,11.60
2018-05-11T02:27:47.620Z,11.50
2018-05-11T02:30:15.796Z,11.50
2018-05-11T02:32:43.981Z,11.40
2018-05-11T02:35:12.169Z,11.40
2018-05-11T02:37:39.682Z,11.40
2018-05-11T02:40:07.840Z,11.30
2018-05-11T02:42:36.030Z,11.30
2018-05-11T02:45:04.204Z,11.30
2018-05-11T02:47:32.402Z,11.30
2018-05-11T02:50:00.608Z,11.20
2018-05-11T02:52:28.017Z,11.20
2018-05-11T02:54:55.437Z,11.20
2018-05-11T02:57:23.613Z,11.10
2018-05-11T02:59:51.822Z,11.00
2018-05-11T03:02:19.254Z,11.10
2018-05-11T03:04:46.660Z,11.00
2018-05-11T03:07:14.085Z,11.00
2018-05-11T03:09:41.498Z,11.00
2018-05-11T03:12:08.956Z,11.00
2018-05-11T03:14:36.378Z,11.00
2018-05-11T03:17:03.789Z,11.00
2018-05-11T03:19:31.213Z,10.90
2018-05-11T03:21:58.624Z,10.90
2018-05-11T03:24:26.113Z,10.90
2018-05-11T03:26:54.269Z,10.90
2018-05-11T03:29:22.461Z,10.90
2018-05-11T03:31:50.664Z,10.80
2018-05-11T03:34:18.085Z,10.80
2018-05-11T03:36:45.497Z,10.80
2018-05-11T03:39:12.916Z,10.80
2018-05-11T03:41:40.336Z,10.80
2018-05-11T03:44:07.767Z,10.70
2018-05-11T03:46:35.177Z,10.80
2018-05-11T03:49:02.762Z,10.80
2018-05-11T03:51:30.924Z,10.90
2018-05-11T03:53:59.113Z,10.90
2018-05-11T03:56:27.318Z,10.80
2018-05-11T03:58:54.741Z,10.80
2018-05-11T04:01:34.138Z,10.80
2018-05-11T04:04:13.510Z,10.80
2018-05-11T04:06:53.003Z,10.80
2018-05-11T04:09:20.515Z,10.80
2018-05-11T04:11:47.988Z,10.80
2018-05-11T04:14:15.403Z,10.80
2018-05-11T04:16:42.813Z,10.80
2018-05-11T04:19:10.299Z,10.80
2018-05-11T04:21:37.697Z,10.80
2018-05-11T04:24:05.124Z,10.80
2018-05-11T04:26:32.533Z,10.80
2018-05-11T04:28:59.965Z,10.80
2018-05-11T04:31:27.368Z,10.80
2018-05-11T04:33:54.805Z,10.90
2018-05-11T04:36:22.273Z,10.90
2018-05-11T04:38:49.692Z,10.90
2018-05-11T04:41:17.118Z,10.90
2018-05-11T04:43:44.538Z,11.00
2018-05-11T04:46:12.061Z,11.00
2018-05-11T04:48:39.481Z,11.10
2018-05-11T04:51:06.905Z,11.10
2018-05-11T04:53:34.324Z,11.10
2018-05-11T04:56:01.747Z,10.90
2018-05-11T04:58:29.174Z,10.90
2018-05-11T05:00:57.348Z,11.30
2018-05-11T05:03:24.862Z,11.30
2018-05-11T05:05:53.025Z,11.60
2018-05-11T05:08:21.213Z,11.70
2018-05-11T05:10:49.397Z,11.80
2018-05-11T05:13:17.586Z,12.00
2018-05-11T05:15:45.774Z,12.10
2018-05-11T05:18:13.960Z,12.20
2018-05-11T05:20:42.146Z,12.30
2018-05-11T05:23:10.329Z,12.40
2018-05-11T05:25:38.525Z,12.50
2018-05-11T05:28:06.702Z,12.60
2018-05-11T05:30:34.883Z,12.90
2018-05-11T05:33:03.083Z,12.90
2018-05-11T05:35:30.493Z,12.90
2018-05-11T05:37:57.904Z,13.10
2018-05-11T05:40:25.416Z,13.20
2018-05-11T05:42:52.821Z,13.10
2018-05-11T05:45:20.238Z,12.90
2018-05-11T05:47:47.656Z,13.10
2018-05-11T05:50:15.081Z,13.40
2018-05-11T05:52:42.497Z,13.70
2018-05-11T05:55:09.916Z,13.90
2018-05-11T05:57:37.329Z,14.20
2018-05-11T06:00:04.758Z,14.40
2018-05-11T06:02:32.257Z,14.60
2018-05-11T06:04:59.593Z,14.80
2018-05-11T06:07:27.009Z,15.00
2018-05-11T06:09:54.433Z,15.30
2018-05-11T06:12:21.854Z,15.50
2018-05-11T06:14:49.282Z,15.80
2018-05-11T06:17:16.750Z,16.00
2018-05-11T06:19:44.168Z,16.20
2018-05-11T06:22:11.593Z,16.50
2018-05-11T06:24:39.008Z,17.10
2018-05-11T06:27:06.427Z,17.70
2018-05-11T06:29:33.849Z,18.10
2018-05-11T06:32:01.369Z,18.10
2018-05-11T06:34:29.613Z,17.50
2018-05-11T06:36:57.016Z,17.40
2018-05-11T06:39:24.500Z,17.20
2018-05-11T06:41:52.656Z,16.80
2018-05-11T06:44:20.841Z,16.60
2018-05-11T06:46:49.030Z,16.50
2018-05-11T06:49:17.247Z,16.40
2018-05-11T06:51:44.657Z,16.40
2018-05-11T06:54:12.089Z,16.30
2018-05-11T06:56:39.501Z,16.30
2018-05-11T06:59:06.931Z,16.20
2018-05-11T07:01:34.418Z,16.20
2018-05-11T07:04:02.550Z,16.10
2018-05-11T07:06:30.757Z,16.10
2018-05-11T07:08:58.191Z,16.10
2018-05-11T07:11:25.701Z,16.10
2018-05-11T07:13:53.116Z,16.00
2018-05-11T07:16:20.542Z,16.10
2018-05-11T07:18:48.024Z,15.80
2018-05-11T07:21:15.432Z,15.60
2018-05-11T07:23:42.954Z,15.60
2018-05-11T07:26:11.210Z,15.90
2018-05-11T07:28:39.393Z,16.10
2018-05-11T07:31:07.581Z,16.40
2018-05-11T07:33:35.086Z,16.40
2018-05-11T07:36:03.263Z,16.80
2018-05-11T07:38:31.442Z,17.10
2018-05-11T07:40:59.750Z,17.20
2018-05-11T07:43:27.972Z,17.60
2018-05-11T07:45:55.377Z,17.50
2018-05-11T07:48:23.561Z,18.20
2018-05-11T07:50:51.782Z,18.50
2018-05-11T07:53:19.206Z,18.50
2018-05-11T07:55:46.717Z,18.80
2018-05-11T07:58:14.142Z,19.00
2018-05-11T08:00:41.552Z,19.20
2018-05-11T08:03:08.960Z,19.50
2018-05-11T08:05:36.397Z,19.80
2018-05-11T08:08:04.568Z,20.20
2018-05-11T08:10:32.051Z,20.20
2018-05-11T08:12:59.523Z,20.30
2018-05-11T08:15:26.996Z,20.50
2018-05-11T08:17:55.161Z,21.30
2018-05-11T08:20:23.374Z,21.50
2018-05-11T08:22:50.782Z,21.50
2018-05-11T08:25:18.322Z,21.70
2018-05-11T08:27:45.732Z,22.10
2018-05-11T08:30:13.254Z,22.30
2018-05-11T08:32:40.673Z,22.60
2018-05-11T08:35:08.101Z,22.80
2018-05-11T08:37:35.663Z,23.00
2018-05-11T08:40:03.849Z,23.40
2018-05-11T08:42:31.308Z,23.30
2018-05-11T08:44:58.795Z,23.50
2018-05-11T08:47:26.161Z,23.70
2018-05-11T08:49:53.588Z,24.00
2018-05-11T08:52:21.010Z,24.20
2018-05-11T08:54:48.468Z,24.30
2018-05-11T08:57:16.642Z,24.50
2018-05-11T08:59:44.823Z,24.60
2018-05-11T09:02:13.000Z,24.80
2018-05-11T09:04:41.193Z,25.00
2018-05-11T09:07:09.508Z,25.30
2018-05-11T09:09:37.681Z,25.30
2018-05-11T09:12:05.157Z,25.30
2018-05-11T09:14:32.649Z,25.20
2018-05-11T09:17:00.045Z,24.50
2018-05-11T09:19:27.471Z,24.40
2018-05-11T09:21:54.890Z,24.60
2018-05-11T09:24:22.333Z,24.60
2018-05-11T09:26:49.752Z,24.60
2018-05-11T09:29:17.960Z,24.90
2018-05-11T09:31:45.384Z,24.90
2018-05-11T09:34:12.911Z,25.10
2018-05-11T09:36:40.327Z,25.40
2018-05-11T09:39:07.742Z,25.80
2018-05-11T09:41:35.938Z,26.50
2018-05-11T09:44:04.113Z,26.70
2018-05-11T09:46:32.300Z,27.00
2018-05-11T09:49:00.485Z,27.20
2018-05-11T09:51:27.905Z,27.20
2018-05-11T09:53:55.356Z,27.40
2018-05-11T09:56:22.773Z,27.50
2018-05-11T09:58:50.188Z,27.60
2018-05-11T10:01:17.665Z,27.50
2018-05-11T10:03:45.133Z,26.90
2018-05-11T10:06:12.612Z,26.80
2018-05-11T10:08:40.022Z,26.90
2018-05-11T10:11:07.457Z,27.20
2018-05-11T10:13:34.919Z,27.50
2018-05-11T10:16:02.353Z,27.60
2018-05-11T10:18:30.546Z,26.80
2018-05-11T10:20:58.772Z,26.80
2018-05-11T10:23:26.190Z,27.00
2018-05-11T10:25:53.621Z,27.20
2018-05-11T10:28:21.029Z,27.50
2018-05-11T10:30:48.450Z,27.50
2018-05-11T10:33:15.868Z,27.80
2018-05-11T10:35:43.378Z,27.90
2018-05-11T10:38:10.869Z,28.00
2018-05-11T10:40:38.224Z,27.30
2018-05-11T10:43:05.661Z,27.20
2018-05-11T10:45:33.061Z,27.30
2018-05-11T10:48:00.473Z,27.70
2018-05-11T10:50:27.993Z,27.40
2018-05-11T10:52:55.424Z,27.40
2018-05-11T10:55:22.854Z,27.50
2018-05-11T10:57:50.269Z,27.30
2018-05-11T11:00:18.456Z,27.00
2018-05-11T11:02:46.636Z,27.50
2018-05-11T11:05:14.830Z,27.10
2018-05-11T11:07:43.013Z,26.70
2018-05-11T11:10:10.536Z,26.70
2018-05-11T11:12:37.948Z,26.90
2018-05-11T11:15:05.366Z,26.70
2018-05-11T11:17:32.782Z,26.50
2018-05-11T11:20:00.241Z,26.60
2018-05-11T11:22:27.634Z,27.10
2018-05-11T11:24:55.054Z,27.70
2018-05-11T11:27:22.465Z,28.20
2018-05-11T11:29:49.894Z,28.80
2018-05-11T11:32:17.385Z,29.00
2018-05-11T11:34:44.969Z,29.10
2018-05-11T11:37:13.085Z,28.40
2018-05-11T11:39:41.273Z,28.70
2018-05-11T11:42:08.799Z,28.60
2018-05-11T11:44:36.105Z,28.90
2018-05-11T11:47:04.294Z,29.80
2018-05-11T11:49:32.473Z,30.10
2018-05-11T11:52:00.958Z,30.20
2018-05-11T11:54:28.362Z,30.20
2018-05-11T11:56:55.921Z,29.70
2018-05-11T11:59:23.298Z,28.80
2018-05-11T12:01:50.804Z,28.50
2018-05-11T12:04:18.125Z,28.60
2018-05-11T12:06:45.554Z,28.60
2018-05-11T12:09:13.081Z,28.60
2018-05-11T12:11:40.502Z,28.50
2018-05-11T12:14:08.023Z,28.30
2018-05-11T12:16:35.482Z,28.00
2018-05-11T12:19:02.897Z,27.10
2018-05-11T12:21:30.333Z,26.40
2018-05-11T12:23:57.797Z,25.90
2018-05-11T12:26:25.284Z,25.80
2018-05-11T12:28:52.747Z,25.50
2018-05-11T12:31:20.917Z,25.80
2018-05-11T12:33:48.324Z,25.80
2018-05-11T12:36:15.768Z,26.40
2018-05-11T12:38:43.930Z,27.60
2018-05-11T12:41:12.131Z,27.70
2018-05-11T12:43:39.601Z,27.60
2018-05-11T12:46:07.024Z,27.50
2018-05-11T12:48:34.442Z,27.20
2018-05-11T12:51:01.869Z,26.90
2018-05-11T12:53:29.277Z,26.00
2018-05-11T12:55:56.705Z,25.00
2018-05-11T12:58:24.121Z,24.40
2018-05-11T13:00:51.554Z,24.40
2018-05-11T13:03:18.969Z,24.70
2018-05-11T13:05:46.440Z,25.00
2018-05-11T13:08:13.845Z,25.20
2018-05-11T13:10:41.374Z,25.30
2018-05-11T13:13:08.838Z,25.30
2018-05-11T13:15:36.309Z,25.60
2018-05-11T13:18:03.717Z,25.60
2018-05-11T13:20:31.149Z,25.90
2018-05-11T13:22:58.557Z,26.10
2018-05-11T13:25:25.977Z,26.20
2018-05-11T13:27:53.398Z,26.10
2018-05-11T13:30:20.900Z,25.80
2018-05-11T13:32:48.296Z,25.70
2018-05-11T13:35:15.712Z,25.90
2018-05-11T13:37:43.141Z,26.40
2018-05-11T13:40:10.549Z,26.80
2018-05-11T13:42:37.968Z,27.10
2018-05-11T13:45:05.446Z,26.90
2018-05-11T13:47:32.861Z,26.20
2018-05-11T13:50:00.292Z,25.90
2018-05-11T13:52:27.751Z,25.20
2018-05-11T13:54:55.223Z,25.20
2018-05-11T13:57:22.642Z,24.90
2018-05-11T13:59:50.052Z,24.40
2018-05-11T14:02:17.468Z,24.30
2018-05-11T14:04:44.919Z,24.20
2018-05-11T14:07:12.374Z,24.50
2018-05-11T14:09:39.785Z,24.80
2018-05-11T14:12:07.207Z,25.30
2018-05-11T14:14:34.616Z,25.20
2018-05-11T14:17:02.042Z,25.40
2018-05-11T14:19:29.456Z,25.60
2018-05-11T14:21:56.889Z,25.90
2018-05-11T14:24:24.297Z,25.90
2018-05-11T14:26:51.727Z,26.10
2018-05-11T14:29:19.189Z,26.20
2018-05-11T14:31:46.604Z,26.30
2018-05-11T14:34:14.022Z,25.70
2018-05-11T14:36:41.450Z,25.70
2018-05-11T14:39:08.965Z,25.70
2018-05-11T14:41:36.388Z,25.50
2018-05-11T14:44:03.801Z,25.20
2018-05-11T14:46:31.226Z,25.40
2018-05-11T14:48:58.640Z,25.40
2018-05-11T14:51:26.060Z,25.60
2018-05-11T14:53:53.473Z,25.80
2018-05-11T14:56:20.896Z,25.90
2018-05-11T14:58:48.334Z,25.80
2018-05-11T15:01:15.744Z,26.00
2018-05-11T15:03:43.162Z,26.20
2018-05-11T15:06:10.585Z,26.20
2018-05-11T15:08:37.997Z,25.70
2018-05-11T15:11:05.470Z,25.50
2018-05-11T15:13:32.885Z,25.40
2018-05-11T15:16:00.310Z,25.30
2018-05-11T15:18:27.733Z,25.50
2018-05-11T15:20:55.153Z,25.40
2018-05-11T15:23:22.564Z,25.50
2018-05-11T15:25:49.997Z,25.70
2018-05-11T15:28:17.404Z,25.90
2018-05-11T15:30:44.826Z,26.00
2018-05-11T15:33:12.241Z,26.00
2018-05-11T15:35:39.661Z,25.70
2018-05-11T15:38:07.085Z,25.40
2018-05-11T15:40:34.505Z,25.10
2018-05-11T15:43:01.918Z,24.90
2018-05-11T15:45:29.325Z,24.80
2018-05-11T15:47:56.748Z,24.90
2018-05-11T15:50:24.156Z,24.70
2018-05-11T15:52:52.336Z,24.20
2018-05-11T15:55:20.552Z,24.20
2018-05-11T15:57:48.726Z,24.20
2018-05-11T16:00:16.138Z,24.10
2018-05-11T16:02:43.578Z,24.00
2018-05-11T16:05:10.989Z,24.10
2018-05-11T16:07:38.504Z,23.90
2018-05-11T16:10:05.982Z,23.90
2018-05-11T16:12:33.468Z,23.70
2018-05-11T16:15:00.924Z,23.80
2018-05-11T16:17:28.397Z,23.80
2018-05-11T16:19:55.804Z,23.80
2018-05-11T16:22:23.230Z,23.80
2018-05-11T16:24:50.648Z,23.70
2018-05-11T16:27:18.069Z,23.90
2018-05-11T16:29:45.477Z,23.90
2018-05-11T16:32:12.893Z,23.90
2018-05-11T16:34:41.069Z,24.10
2018-05-11T16:37:09.274Z,24.10
2018-05-11T16:39:37.488Z,24.00
2018-05-11T16:42:04.945Z,24.00
2018-05-11T16:44:33.112Z,23.80
2018-05-11T16:47:01.298Z,23.90
2018-05-11T16:49:29.473Z,23.90
2018-05-11T16:51:57.661Z,23.90
2018-05-11T16:54:25.837Z,23.90
2018-05-11T16:56:53.267Z,23.90
2018-05-11T16:59:20.669Z,23.90
2018-05-11T17:01:48.181Z,23.90
2018-05-11T17:04:15.599Z,23.90
2018-05-11T17:06:43.017Z,23.90
2018-05-11T17:09:10.465Z,23.90
2018-05-11T17:11:38.657Z,23.90
2018-05-11T17:14:06.840Z,23.90
2018-05-11T17:16:35.024Z,23.90
2018-05-11T17:19:03.201Z,23.90
2018-05-11T17:21:30.613Z,23.80
2018-05-11T17:23:58.025Z,23.80
2018-05-11T17:26:25.445Z,23.80
2018-05-11T17:28:52.857Z,23.70
2018-05-11T17:31:20.279Z,23.70
2018-05-11T17:33:47.760Z,23.60
2018-05-11T17:36:15.177Z,23.50
2018-05-11T17:38:42.593Z,23.50
2018-05-11T17:41:10.010Z,23.40
2018-05-11T17:43:37.537Z,23.30
2018-05-11T17:46:05.701Z,23.00
2018-05-11T17:48:33.926Z,23.00
2018-05-11T17:51:02.097Z,22.80
2018-05-11T17:53:29.508Z,22.80
2018-05-11T17:55:56.920Z,22.70
2018-05-11T17:58:25.113Z,22.40
2018-05-11T18:00:52.529Z,22.40
2018-05-11T18:03:19.958Z,22.30
2018-05-11T18:05:47.371Z,22.10
2018-05-11T18:08:14.789Z,22.00
2018-05-11T18:10:42.225Z,21.80
2018-05-11T18:13:09.641Z,21.70
2018-05-11T18:15:37.097Z,21.60
2018-05-11T18:18:04.573Z,21.40
2018-05-11T18:20:32.046Z,21.30
2018-05-11T18:22:59.465Z,21.20
2018-05-11T18:25:26.887Z,21.10
2018-05-11T18:27:54.354Z,21.00
2018-05-11T18:30:21.760Z,20.80
2018-05-11T18:32:49.176Z,20.70
2018-05-11T18:35:17.381Z,20.40
2018-05-11T18:37:44.801Z,20.40
2018-05-11T18:40:12.244Z,20.30
2018-05-11T18:42:39.676Z,20.20
2018-05-11T18:45:07.189Z,20.10
2018-05-11T18:47:34.606Z,19.90
2018-05-11T18:50:02.790Z,19.60
2018-05-11T18:52:30.968Z,19.50
2018-05-11T18:54:59.146Z,19.40
2018-05-11T18:57:26.577Z,19.40
2018-05-11T18:59:53.990Z,19.30
2018-05-11T19:02:21.408Z,19.20
2018-05-11T19:04:48.869Z,19.10
2018-05-11T19:07:16.280Z,18.90
2018-05-11T19:09:43.693Z,18.80
2018-05-11T19:12:11.118Z,18.70
2018-05-11T19:14:38.543Z,18.60
2018-05-11T19:17:06.016Z,18.50
2018-05-11T19:19:34.185Z,18.30
2018-05-11T19:22:02.369Z,18.20
2018-05-11T19:24:30.545Z,18.10
2018-05-11T19:26:58.765Z,18.00
2018-05-11T19:29:26.177Z,17.90
2018-05-11T19:31:53.697Z,17.90
2018-05-11T19:34:21.170Z,17.80
2018-05-11T19:36:48.637Z,17.70
2018-05-11T19:39:16.105Z,17.60
2018-05-11T19:41:43.529Z,17.50
2018-05-11T19:44:10.942Z,17.50
2018-05-11T19:46:38.363Z,17.40
2018-05-11T19:49:05.790Z,17.30
2018-05-11T19:51:33.209Z,17.20
2018-05-11T19:54:00.633Z,17.20
2018-05-11T19:56:28.048Z,17.10
2018-05-11T19:58:55.561Z,17.10
2018-05-11T20:01:22.973Z,17.00
2018-05-11T20:03:50.398Z,16.90
2018-05-11T20:06:17.813Z,16.90
2018-05-11T20:08:45.258Z,16.80
2018-05-11T20:11:12.684Z,16.80
2018-05-11T20:13:40.873Z,16.70
2018-05-11T20:16:09.058Z,16.60
2018-05-11T20:18:36.559Z,16.60
2018-05-11T20:21:04.742Z,16.50
2018-05-11T20:23:32.161Z,16.50
2018-05-11T20:25:59.581Z,16.50
2018-05-11T20:28:27.051Z,16.50
2018-05-11T20:30:54.528Z,16.50
2018-05-11T20:33:21.942Z,16.40
2018-05-11T20:35:49.353Z,16.40
2018-05-11T20:38:16.837Z,16.40
2018-05-11T20:40:44.241Z,16.30
2018-05-11T20:43:11.725Z,16.30
2018-05-11T20:45:39.140Z,16.20
2018-05-11T20:48:06.610Z,16.20
2018-05-11T20:50:34.030Z,16.20
2018-05-11T20:53:04.569Z,16.20
2018-05-11T20:55:31.990Z,16.20
2018-05-11T20:57:59.425Z,16.20
2018-05-11T21:00:27.610Z,16.20
2018-05-11T21:02:55.797Z,16.10
2018-05-11T21:05:23.986Z,16.20
2018-05-11T21:07:52.169Z,16.10
2018-05-11T21:10:20.367Z,16.10
2018-05-11T21:12:49.429Z,16.10
2018-05-11T21:15:16.865Z,16.10
2018-05-11T21:17:44.285Z,15.90
2018-05-11T21:20:11.707Z,15.90
2018-05-11T21:22:39.112Z,15.90
2018-05-11T21:25:06.537Z,15.90
2018-05-11T21:27:34.713Z,15.80
2018-05-11T21:30:02.194Z,15.80
2018-05-11T21:32:29.617Z,15.70
2018-05-11T21:34:57.045Z,15.70
2018-05-11T21:37:24.535Z,15.70
2018-05-11T21:39:51.937Z,15.60
2018-05-11T21:42:19.362Z,15.60
2018-05-11T21:44:46.787Z,15.50
2018-05-11T21:47:14.973Z,15.30
2018-05-11T21:49:43.174Z,15.30
2018-05-11T21:52:10.657Z,15.20
2018-05-11T21:54:38.082Z,15.20
2018-05-11T21:57:05.515Z,15.20
2018-05-11T21:59:32.924Z,15.10
2018-05-11T22:02:00.349Z,15.10
2018-05-11T22:04:27.765Z,15.00
2018-05-11T22:06:55.188Z,15.00
2018-05-11T22:09:22.649Z,15.00
2018-05-11T22:11:50.074Z,14.90
2018-05-11T22:14:17.498Z,14.90
2018-05-11T22:16:44.918Z,14.80
2018-05-11T22:19:12.417Z,14.80
2018-05-11T22:21:39.842Z,14.80
2018-05-11T22:24:07.262Z,14.70
2018-05-11T22:26:34.694Z,14.70
2018-05-11T22:29:02.105Z,14.60
2018-05-11T22:31:29.671Z,14.50
2018-05-11T22:33:57.093Z,14.50
2018-05-11T22:36:24.632Z,14.50
2018-05-11T22:38:52.061Z,14.50
2018-05-11T22:41:20.241Z,14.40
2018-05-11T22:43:48.447Z,14.40
2018-05-11T22:46:16.620Z,14.30
2018-05-11T22:48:44.813Z,14.30
2018-05-11T22:51:13.006Z,14.30
2018-05-11T22:53:41.193Z,14.30
2018-05-11T22:56:08.673Z,14.30
2018-05-11T22:58:36.098Z,14.30
2018-05-11T23:01:03.517Z,14.30
2018-05-11T23:03:30.937Z,14.30
2018-05-11T23:05:58.351Z,14.30
2018-05-11T23:08:25.772Z,14.20
2018-05-11T23:10:53.288Z,14.10
2018-05-11T23:13:20.723Z,14.10
2018-05-11T23:15:48.142Z,14.10
2018-05-11T23:18:15.558Z,14.10
2018-05-11T23:20:42.974Z,14.10
2018-05-11T23:23:10.434Z,14.10
2018-05-11T23:25:37.862Z,14.10
2018-05-11T23:28:05.277Z,14.10
2018-05-11T23:30:32.703Z,14.00
2018-05-11T23:33:00.219Z,13.90
2018-05-11T23:35:27.640Z,13.90
2018-05-11T23:37:55.060Z,13.90
2018-05-11T23:40:22.526Z,13.80
2018-05-11T23:42:49.945Z,13.80
2018-05-11T23:45:18.141Z,13.70
2018-05-11T23:47:45.561Z,13.70
2018-05-11T23:50:12.982Z,13.50
2018-05-11T23:52:40.401Z,13.60
2018-05-11T23:55:07.832Z,13.60
2018-05-11T23:57:36.015Z,13.60
